Terminal Aerodrome Forecast
Issued by NWS Wilmington, OH

Current Version | Previous Version | Text Only | Print | Product List | Glossary Off
Versions: 1 2 3 4 5 6 7 8 9 10 11 12 13 14 15 16 17 18 19 20 21 22 23 24 25 26 27 28 29 30

000
FTUS41 KILN 280202 AAB
TAFILN
TAF AMD
KILN 280202Z 2802/2824 04005KT P6SM VCSH SCT029 BKN045
     FM280500 07003KT 3SM BR FEW040 SCT250
      TEMPO 2809/2812 2SM BR
     FM281300 09005KT P6SM FEW040 SCT250
     FM281700 10006KT P6SM BKN050=

USA.gov is the U.S. government's official web portal to all federal, state and local government web resources and services.